Time;durP1;ratioP1;P1;durP2;ratioP2;P2;SDS_P1;SDS_P2;PMS_P1;PMS_P2;Temp;Humidity;BMP_temperature;BMP_pressure;BME280_temperature;BME280_humidity;BME280_pressure;Samples;Min_cycle;Max_cycle;Signal;HPM_P1;HPM_P2
2022/09/03 00:00:37;;;;;;;0.00;0.00;;;15.90;99.90;;;;;;5153454;27;20834;-77
2022/09/03 00:03:13;;;;;;;0.00;0.00;;;15.80;99.90;;;;;;5152561;27;20524;-81
2022/09/03 00:05:47;;;;;;;0.00;0.00;;;15.90;99.90;;;;;;5153514;27;20462;-78
2022/09/03 00:08:22;;;;;;;0.00;0.00;;;15.90;99.90;;;;;;5160589;27;20437;-79
2022/09/03 00:10:56;;;;;;;0.00;0.00;;;15.90;99.90;;;;;;5155197;27;20483;-79
2022/09/03 00:13:27;;;;;;;0.00;0.00;;;15.90;99.90;;;;;;5154268;27;20420;-80
2022/09/03 00:16:00;;;;;;;0.00;0.00;;;15.90;99.90;;;;;;5153396;27;20420;-80
2022/09/03 00:18:33;;;;;;;0.00;0.00;;;15.90;99.90;;;;;;5154880;27;20527;-80
2022/09/03 00:21:07;;;;;;;0.00;0.00;;;15.90;99.90;;;;;;5152502;27;20450;-79
2022/09/03 00:23:40;;;;;;;0.00;0.00;;;15.80;99.90;;;;;;5153199;27;20482;-79
2022/09/03 00:26:18;;;;;;;0.00;0.00;;;15.80;99.90;;;;;;5159302;27;20555;-80
2022/09/03 00:28:51;;;;;;;0.00;0.00;;;15.80;99.90;;;;;;5161817;27;20530;-78
2022/09/03 00:31:26;;;;;;;0.00;0.00;;;15.70;99.90;;;;;;5164043;27;20539;-77
2022/09/03 00:33:59;;;;;;;0.00;0.00;;;15.60;99.90;;;;;;5160873;27;20506;-76
2022/09/03 00:36:35;;;;;;;0.00;0.00;;;15.60;99.90;;;;;;5163972;27;20451;-77
2022/09/03 00:39:04;;;;;;;0.00;0.00;;;15.60;99.90;;;;;;5164042;27;20448;-76
2022/09/03 00:41:40;;;;;;;0.00;0.00;;;15.50;99.90;;;;;;5158653;27;20491;-79
2022/09/03 00:44:33;;;;;;;0.00;0.00;;;15.50;99.90;;;;;;5152995;27;20435;-79
2022/09/03 00:47:09;;;;;;;0.00;0.00;;;15.50;99.90;;;;;;5152666;27;20436;-77
2022/09/03 00:49:51;;;;;;;0.00;0.00;;;15.40;99.90;;;;;;5152646;27;20478;-76
2022/09/03 00:52:28;;;;;;;0.00;0.00;;;15.30;99.90;;;;;;5153540;27;20470;-79
2022/09/03 00:55:06;;;;;;;0.00;0.00;;;15.30;99.90;;;;;;5160964;27;20451;-77
2022/09/03 00:57:43;;;;;;;0.00;0.00;;;15.20;99.90;;;;;;5160099;27;20423;-78
2022/09/03 01:00:17;;;;;;;0.00;0.00;;;15.20;99.90;;;;;;5159855;27;20527;-77
2022/09/03 01:02:58;;;;;;;0.00;0.00;;;15.20;99.90;;;;;;5161119;27;20458;-78
2022/09/03 01:05:42;;;;;;;0.00;0.00;;;15.20;99.90;;;;;;5161495;27;20511;-77
2022/09/03 01:08:35;;;;;;;0.00;0.00;;;15.20;99.90;;;;;;5160905;27;20494;-77
2022/09/03 01:11:15;;;;;;;0.00;0.00;;;15.20;99.90;;;;;;5160659;27;20478;-78
2022/09/03 01:13:49;;;;;;;0.00;0.00;;;15.20;99.90;;;;;;5159835;27;20432;-80
2022/09/03 01:16:30;;;;;;;0.00;0.00;;;15.20;99.90;;;;;;5147751;27;20518;-78
2022/09/03 01:19:11;;;;;;;0.00;0.00;;;15.30;99.90;;;;;;5147732;27;21136;-79
2022/09/03 01:22:04;;;;;;;0.00;0.00;;;15.30;99.90;;;;;;5148565;27;20463;-78
2022/09/03 01:24:58;;;;;;;0.00;0.00;;;15.30;99.90;;;;;;5154703;27;20467;-79
2022/09/03 01:27:38;;;;;;;0.00;0.00;;;15.40;99.90;;;;;;5147849;27;21129;-80
2022/09/03 01:30:17;;;;;;;0.00;0.00;;;15.40;99.90;;;;;;5148499;27;20502;-81
2022/09/03 01:32:54;;;;;;;0.00;0.00;;;15.40;99.90;;;;;;5148564;27;20486;-81
2022/09/03 01:35:30;;;;;;;0.00;0.00;;;15.40;99.90;;;;;;5149146;27;20435;-79
2022/09/03 01:38:12;;;;;;;0.00;0.00;;;15.40;99.90;;;;;;5149390;27;20460;-79
2022/09/03 01:40:49;;;;;;;0.00;0.00;;;15.40;99.90;;;;;;5149683;27;21106;-80
2022/09/03 01:43:36;;;;;;;0.00;0.00;;;15.30;99.90;;;;;;5150057;27;20927;-78
2022/09/03 01:46:12;;;;;;;0.00;0.00;;;15.20;99.90;;;;;;5147160;27;20962;-80
2022/09/03 01:48:48;;;;;;;0.00;0.00;;;15.10;99.90;;;;;;5150300;27;20474;-78
2022/09/03 01:51:22;;;;;;;0.00;0.00;;;15.00;99.90;;;;;;5144346;27;20458;-78
2022/09/03 01:54:10;;;;;;;0.00;0.00;;;15.00;99.90;;;;;;5143147;27;20518;-78
2022/09/03 01:57:14;;;;;;;0.00;0.00;;;14.90;99.90;;;;;;5144478;27;21083;-78
2022/09/03 02:00:07;;;;;;;0.00;0.00;;;14.90;99.90;;;;;;5146444;27;20451;-79
2022/09/03 02:02:36;;;;;;;0.00;0.00;;;14.80;99.90;;;;;;5144329;27;20434;-79
2022/09/03 02:05:08;;;;;;;0.00;0.00;;;14.80;99.90;;;;;;5145203;27;20434;-80
2022/09/03 02:07:39;;;;;;;0.00;0.00;;;14.70;99.90;;;;;;5152670;27;20523;-80
2022/09/03 02:10:10;;;;;;;0.00;0.00;;;14.80;99.90;;;;;;5160562;27;20528;-79
2022/09/03 02:12:41;;;;;;;0.00;0.00;;;14.80;99.90;;;;;;5156076;27;20467;-79
2022/09/03 02:15:13;;;;;;;0.00;0.00;;;14.70;99.90;;;;;;5149331;27;20428;-79
2022/09/03 02:20:28;;;;;;;0.00;0.00;;;14.60;99.90;;;;;;5445269;22;20501;-92
2022/09/03 02:22:58;;;;;;;0.00;0.00;;;14.60;99.90;;;;;;5129025;28;20465;-93
2022/09/03 02:25:31;;;;;;;0.00;0.00;;;14.50;99.90;;;;;;5130234;28;20441;-92
2022/09/03 02:28:00;;;;;;;0.00;0.00;;;14.50;99.90;;;;;;5129577;28;20452;-91
2022/09/03 02:30:30;;;;;;;0.00;0.00;;;14.50;99.90;;;;;;5128420;28;20557;-93
2022/09/03 02:32:59;;;;;;;0.00;0.00;;;14.50;99.90;;;;;;5122429;28;20473;-90
2022/09/03 02:35:29;;;;;;;0.00;0.00;;;14.50;99.90;;;;;;5123085;28;20453;-90
2022/09/03 02:37:57;;;;;;;0.00;0.00;;;14.50;99.90;;;;;;5128016;28;20441;-91
2022/09/03 02:40:26;;;;;;;0.00;0.00;;;14.50;99.90;;;;;;5131180;28;20461;-91
2022/09/03 02:42:55;;;;;;;0.00;0.00;;;14.40;99.90;;;;;;5134944;28;20460;-90
2022/09/03 02:45:28;;;;;;;0.00;0.00;;;14.40;99.90;;;;;;5132297;28;20648;-93
2022/09/03 02:47:59;;;;;;;0.00;0.00;;;14.40;99.90;;;;;;5133944;28;20459;-91
2022/09/03 02:50:29;;;;;;;0.00;0.00;;;14.40;99.90;;;;;;5133829;28;20453;-92
2022/09/03 02:52:57;;;;;;;0.00;0.00;;;14.40;99.90;;;;;;5133745;28;20602;-91
2022/09/03 02:55:25;;;;;;;0.00;0.00;;;14.30;99.90;;;;;;5131141;28;20648;-90
2022/09/03 02:57:54;;;;;;;0.00;0.00;;;14.30;99.90;;;;;;5127582;27;20452;-91
2022/09/03 03:00:22;;;;;;;0.00;0.00;;;14.30;99.90;;;;;;5128693;28;21012;-91
2022/09/03 03:02:51;;;;;;;0.00;0.00;;;14.30;99.90;;;;;;5127403;28;21007;-92
2022/09/03 03:05:28;;;;;;;0.00;0.00;;;14.20;99.90;;;;;;5125284;28;20466;-91
2022/09/03 03:07:58;;;;;;;0.00;0.00;;;14.20;99.90;;;;;;5129343;28;20455;-92
2022/09/03 03:10:27;;;;;;;0.00;0.00;;;14.20;99.90;;;;;;5130742;28;20472;-91
2022/09/03 03:12:55;;;;;;;0.00;0.00;;;14.10;99.90;;;;;;5127376;28;20472;-92
2022/09/03 03:15:23;;;;;;;0.00;0.00;;;14.10;99.90;;;;;;5129308;28;20461;-94
2022/09/03 03:17:52;;;;;;;0.00;0.00;;;14.10;99.90;;;;;;5129572;28;20438;-92
2022/09/03 03:20:20;;;;;;;0.00;0.00;;;14.00;99.90;;;;;;5137084;28;20457;-92
2022/09/03 03:26:23;;;;;;;0.00;0.00;;;14.00;99.90;;;;;;5121296;27;20520;-92
2022/09/03 03:28:56;;;;;;;0.00;0.00;;;14.00;99.90;;;;;;5117860;28;20510;-93
2022/09/03 03:31:26;;;;;;;0.00;0.00;;;13.90;99.90;;;;;;5127874;28;20477;-93
2022/09/03 03:33:56;;;;;;;0.00;0.00;;;13.90;99.90;;;;;;5128943;28;20498;-93
2022/09/03 03:36:28;;;;;;;0.00;0.00;;;13.90;99.90;;;;;;5128897;28;20460;-94
2022/09/03 03:38:58;;;;;;;0.00;0.00;;;13.90;99.90;;;;;;5126959;28;20452;-93
2022/09/03 03:41:31;;;;;;;0.00;0.00;;;13.90;99.90;;;;;;5127034;28;20548;-94
2022/09/03 03:44:04;;;;;;;0.00;0.00;;;13.90;99.90;;;;;;5128675;28;20505;-95
2022/09/03 03:46:34;;;;;;;0.00;0.00;;;13.90;99.90;;;;;;5132492;28;20441;-94
2022/09/03 03:49:05;;;;;;;0.00;0.00;;;13.90;99.90;;;;;;5133476;28;20467;-94
2022/09/03 03:51:34;;;;;;;0.00;0.00;;;13.90;99.90;;;;;;5128986;28;20495;-92
2022/09/03 03:54:03;;;;;;;0.00;0.00;;;13.90;99.90;;;;;;5127168;28;20469;-94
2022/09/03 03:56:35;;;;;;;0.00;0.00;;;14.00;99.90;;;;;;5129656;28;20438;-94
2022/09/03 03:59:04;;;;;;;0.00;0.00;;;14.00;99.90;;;;;;5129473;28;20465;-92
2022/09/03 04:01:33;;;;;;;0.00;0.00;;;14.00;99.90;;;;;;5124058;28;20465;-93
2022/09/03 04:04:01;;;;;;;0.00;0.00;;;14.00;99.90;;;;;;5124153;28;20465;-92
2022/09/03 04:06:30;;;;;;;0.00;0.00;;;14.00;99.90;;;;;;5124753;28;20452;-92
2022/09/03 04:08:58;;;;;;;0.00;0.00;;;13.90;99.90;;;;;;5124431;28;20442;-92
2022/09/03 04:11:26;;;;;;;0.00;0.00;;;13.90;99.90;;;;;;5121704;28;20469;-92
2022/09/03 04:13:56;;;;;;;0.00;0.00;;;13.90;99.90;;;;;;5122896;28;21157;-93
2022/09/03 04:16:26;;;;;;;0.00;0.00;;;13.90;99.90;;;;;;5124085;28;20590;-93
2022/09/03 04:18:55;;;;;;;0.00;0.00;;;13.90;99.90;;;;;;5125218;28;20429;-93
2022/09/03 04:21:25;;;;;;;0.00;0.00;;;13.90;99.90;;;;;;5132405;28;20465;-92
2022/09/03 04:23:56;;;;;;;0.00;0.00;;;13.90;99.90;;;;;;5134252;28;21016;-92
2022/09/03 04:26:26;;;;;;;0.00;0.00;;;13.90;99.90;;;;;;5125294;28;20453;-92
2022/09/03 04:28:56;;;;;;;0.00;0.00;;;13.90;99.90;;;;;;5126421;28;20745;-94
2022/09/03 04:31:24;;;;;;;0.00;0.00;;;13.90;99.90;;;;;;5127610;27;20461;-94
2022/09/03 04:33:53;;;;;;;0.00;0.00;;;13.90;99.90;;;;;;5127161;28;20518;-92
2022/09/03 04:36:23;;;;;;;0.00;0.00;;;13.90;99.90;;;;;;5123596;28;20438;-93
2022/09/03 04:38:54;;;;;;;0.00;0.00;;;13.90;99.90;;;;;;5122409;28;20445;-92
2022/09/03 04:41:24;;;;;;;0.00;0.00;;;13.90;99.90;;;;;;5121795;28;20654;-93
2022/09/03 04:43:54;;;;;;;0.00;0.00;;;13.90;99.90;;;;;;5124355;28;20441;-91
2022/09/03 04:46:32;;;;;;;0.00;0.00;;;13.90;99.90;;;;;;5126388;28;20457;-92
2022/09/03 04:49:01;;;;;;;0.00;0.00;;;13.90;99.90;;;;;;5125892;27;20472;-92
2022/09/03 04:51:31;;;;;;;0.00;0.00;;;13.90;99.90;;;;;;5120368;28;20526;-92
2022/09/03 04:54:01;;;;;;;0.00;0.00;;;13.90;99.90;;;;;;5103058;28;20470;-91
2022/09/03 04:56:31;;;;;;;0.00;0.00;;;13.90;99.90;;;;;;5102576;28;20453;-91
2022/09/03 04:59:04;;;;;;;0.00;0.00;;;13.90;99.90;;;;;;5108524;28;20565;-91
2022/09/03 05:02:37;;;;;;;0.00;0.00;;;13.90;99.90;;;;;;5133168;27;20482;-92
2022/09/03 05:08:10;;;;;;;0.00;0.00;;;13.90;99.90;;;;;;5107802;28;20589;-92
2022/09/03 05:10:38;;;;;;;0.00;0.00;;;13.80;99.90;;;;;;5100599;22;20491;-75
2022/09/03 05:13:06;;;;;;;0.00;0.00;;;13.90;99.90;;;;;;5059841;28;20444;-75
2022/09/03 05:15:34;;;;;;;0.00;0.00;;;13.90;99.90;;;;;;5059491;28;21047;-75
2022/09/03 05:18:04;;;;;;;0.00;0.00;;;14.00;99.90;;;;;;5059335;28;20558;-75
2022/09/03 05:20:32;;;;;;;0.00;0.00;;;14.00;99.90;;;;;;5058916;28;20443;-75
2022/09/03 05:23:02;;;;;;;0.00;0.00;;;14.00;99.90;;;;;;5060002;28;20508;-76
2022/09/03 05:25:30;;;;;;;0.00;0.00;;;14.00;99.90;;;;;;5055328;28;20477;-75
2022/09/03 05:27:59;;;;;;;0.00;0.00;;;14.00;99.90;;;;;;5042445;28;20538;-75
2022/09/03 05:30:27;;;;;;;0.00;0.00;;;14.00;99.90;;;;;;5058795;28;20467;-75
2022/09/03 05:32:56;;;;;;;0.00;0.00;;;14.10;99.90;;;;;;5056347;28;21047;-74
2022/09/03 05:35:25;;;;;;;0.00;0.00;;;14.20;99.90;;;;;;5048837;28;20849;-74
2022/09/03 05:37:58;;;;;;;0.00;0.00;;;14.20;99.90;;;;;;5050727;28;20510;-76
2022/09/03 05:40:26;;;;;;;0.00;0.00;;;14.10;99.90;;;;;;5040374;28;20464;-75
2022/09/03 05:42:58;;;;;;;0.00;0.00;;;14.10;99.90;;;;;;5040482;28;20444;-75
2022/09/03 05:45:26;;;;;;;0.00;0.00;;;14.20;99.90;;;;;;5041289;28;20441;-77
2022/09/03 05:47:54;;;;;;;0.00;0.00;;;14.20;99.90;;;;;;5040485;28;20447;-77
2022/09/03 05:50:22;;;;;;;0.00;0.00;;;14.30;99.90;;;;;;5038842;28;21109;-74
2022/09/03 05:52:51;;;;;;;0.00;0.00;;;14.30;99.90;;;;;;5039822;28;20416;-76
2022/09/03 05:55:19;;;;;;;0.00;0.00;;;14.30;99.90;;;;;;5041805;28;20479;-76
2022/09/03 05:57:52;;;;;;;0.00;0.00;;;14.40;99.90;;;;;;5051603;28;20448;-74
2022/09/03 06:00:21;;;;;;;0.00;0.00;;;14.50;99.90;;;;;;5049797;28;20984;-77
2022/09/03 06:02:50;;;;;;;0.00;0.00;;;14.50;99.90;;;;;;5043059;28;20437;-74
2022/09/03 06:05:19;;;;;;;0.00;0.00;;;14.60;99.90;;;;;;5039515;28;20525;-75
2022/09/03 06:07:48;;;;;;;0.00;0.00;;;14.70;99.90;;;;;;5054973;28;20450;-76
2022/09/03 06:10:17;;;;;;;0.00;0.00;;;14.80;99.90;;;;;;5059852;28;20467;-76
2022/09/03 06:12:51;;;;;;;0.00;0.00;;;14.80;99.90;;;;;;5060741;28;20828;-75
2022/09/03 06:15:19;;;;;;;0.00;0.00;;;14.90;99.90;;;;;;5060568;28;20475;-76
2022/09/03 06:17:47;;;;;;;0.00;0.00;;;14.90;99.90;;;;;;5061504;28;20534;-77
2022/09/03 06:20:15;;;;;;;0.00;0.00;;;15.00;99.90;;;;;;5060707;28;20545;-77
2022/09/03 06:22:47;;;;;;;0.00;0.00;;;15.00;99.90;;;;;;5060373;28;20428;-76
2022/09/03 06:25:18;;;;;;;0.00;0.00;;;15.10;99.90;;;;;;5059189;28;20439;-76
2022/09/03 06:27:46;;;;;;;0.00;0.00;;;15.20;99.90;;;;;;5058928;28;20474;-75
2022/09/03 06:30:14;;;;;;;0.00;0.00;;;15.30;99.90;;;;;;5058059;28;20560;-75
2022/09/03 06:32:44;;;;;;;0.00;0.00;;;15.30;99.90;;;;;;5060498;28;20522;-75
2022/09/03 06:35:12;;;;;;;0.00;0.00;;;15.40;99.90;;;;;;5062353;28;20482;-74
2022/09/03 06:37:40;;;;;;;0.00;0.00;;;15.40;99.90;;;;;;5053767;28;20555;-75
2022/09/03 06:40:13;;;;;;;0.00;0.00;;;15.50;99.90;;;;;;5051955;28;20499;-75
2022/09/03 06:42:42;;;;;;;0.00;0.00;;;15.50;99.90;;;;;;5048208;28;20483;-76
2022/09/03 06:45:13;;;;;;;0.00;0.00;;;15.60;99.90;;;;;;5042312;28;20436;-75
2022/09/03 06:47:43;;;;;;;0.00;0.00;;;15.70;99.90;;;;;;5042181;28;20439;-75
2022/09/03 06:50:11;;;;;;;0.00;0.00;;;15.80;99.90;;;;;;5041896;28;20520;-75
2022/09/03 06:52:38;;;;;;;0.00;0.00;;;15.80;99.90;;;;;;5042085;28;20434;-75
2022/09/03 06:55:07;;;;;;;0.00;0.00;;;15.80;99.90;;;;;;5041565;28;20472;-75
2022/09/03 06:57:35;;;;;;;0.00;0.00;;;15.90;99.90;;;;;;5041753;28;21100;-76
2022/09/03 07:00:05;;;;;;;0.00;0.00;;;15.90;99.90;;;;;;5042160;28;20542;-76
2022/09/03 07:02:33;;;;;;;0.00;0.00;;;16.00;99.90;;;;;;5041786;28;20544;-76
2022/09/03 07:05:01;;;;;;;0.00;0.00;;;16.10;99.90;;;;;;5042346;28;20444;-78
2022/09/03 07:07:29;;;;;;;0.00;0.00;;;16.10;99.90;;;;;;5055349;28;20475;-76
2022/09/03 07:09:57;;;;;;;0.00;0.00;;;16.20;99.90;;;;;;5061625;28;20475;-76
2022/09/03 07:12:25;;;;;;;0.00;0.00;;;16.20;99.90;;;;;;5062538;28;20447;-76
2022/09/03 07:14:52;;;;;;;0.00;0.00;;;16.20;99.90;;;;;;5073384;28;20473;-76
2022/09/03 07:17:22;;;;;;;0.00;0.00;;;16.30;99.90;;;;;;5063734;28;21032;-76
2022/09/03 07:19:50;;;;;;;0.00;0.00;;;16.40;99.90;;;;;;5062644;28;20502;-76
2022/09/03 07:22:18;;;;;;;0.00;0.00;;;16.40;99.90;;;;;;5057858;28;20965;-77
2022/09/03 07:24:46;;;;;;;0.00;0.00;;;16.50;99.90;;;;;;5049038;28;20454;-76
2022/09/03 07:27:14;;;;;;;0.00;0.00;;;16.50;99.90;;;;;;5061336;28;20497;-75
2022/09/03 07:29:42;;;;;;;0.00;0.00;;;16.60;99.90;;;;;;5046460;28;20460;-76
2022/09/03 07:32:10;;;;;;;0.00;0.00;;;16.70;99.90;;;;;;5041450;28;21042;-76
2022/09/03 07:34:39;;;;;;;0.00;0.00;;;16.80;99.90;;;;;;5041410;28;20457;-76
2022/09/03 07:37:07;;;;;;;0.00;0.00;;;16.90;99.90;;;;;;5041508;28;20448;-76
2022/09/03 07:39:35;;;;;;;0.00;0.00;;;17.00;99.90;;;;;;5041705;28;20514;-76
2022/09/03 07:42:03;;;;;;;0.00;0.00;;;17.10;99.90;;;;;;5041568;28;20452;-76
2022/09/03 07:44:31;;;;;;;0.00;0.00;;;17.20;99.90;;;;;;5042388;28;20520;-75
2022/09/03 07:46:59;;;;;;;0.00;0.00;;;17.20;99.90;;;;;;5041640;28;20539;-76
2022/09/03 07:49:27;;;;;;;0.00;0.00;;;17.30;99.90;;;;;;5050571;28;20579;-81
2022/09/03 07:51:56;;;;;;;0.00;0.00;;;17.30;99.90;;;;;;5062522;28;20497;-78
2022/09/03 07:54:26;;;;;;;0.00;0.00;;;17.40;99.90;;;;;;5064944;28;20433;-83
2022/09/03 07:56:54;;;;;;;0.00;0.00;;;17.50;99.90;;;;;;5064547;28;20471;-76
2022/09/03 07:59:23;;;;;;;0.00;0.00;;;17.60;99.90;;;;;;5064174;28;20474;-78
2022/09/03 08:01:51;;;;;;;0.00;0.00;;;17.70;99.90;;;;;;5065348;28;20919;-77
2022/09/03 08:04:20;;;;;;;0.00;0.00;;;17.70;99.90;;;;;;5056666;28;20455;-78
2022/09/03 08:06:48;;;;;;;0.00;0.00;;;17.70;99.90;;;;;;5066137;28;20453;-76
2022/09/03 08:09:18;;;;;;;0.00;0.00;;;17.80;99.90;;;;;;5055494;28;20471;-77
2022/09/03 08:11:46;;;;;;;0.00;0.00;;;17.90;99.90;;;;;;5077123;28;20460;-77
2022/09/03 08:14:15;;;;;;;0.00;0.00;;;18.00;99.90;;;;;;5078954;28;20457;-76
2022/09/03 08:16:46;;;;;;;0.00;0.00;;;18.10;99.90;;;;;;5073448;28;20476;-77
2022/09/03 08:19:14;;;;;;;0.00;0.00;;;18.20;99.90;;;;;;5071441;28;20458;-79
2022/09/03 08:21:42;;;;;;;0.00;0.00;;;18.30;99.90;;;;;;5084765;28;20444;-78
2022/09/03 08:24:10;;;;;;;0.00;0.00;;;18.40;99.90;;;;;;5075419;28;20481;-76
2022/09/03 08:26:41;;;;;;;0.00;0.00;;;18.60;99.90;;;;;;5064256;28;20432;-79
2022/09/03 08:29:17;;;;;;;0.00;0.00;;;18.70;99.90;;;;;;5063429;28;20467;-78
2022/09/03 08:31:45;;;;;;;0.00;0.00;;;18.80;99.90;;;;;;5064608;28;20486;-78
2022/09/03 08:34:15;;;;;;;0.00;0.00;;;18.90;99.90;;;;;;5064612;28;20458;-78
2022/09/03 08:36:45;;;;;;;0.00;0.00;;;19.00;99.90;;;;;;5064044;28;20608;-78
2022/09/03 08:39:13;;;;;;;0.00;0.00;;;19.10;99.90;;;;;;5060648;28;20459;-77
2022/09/03 08:41:59;;;;;;;0.00;0.00;;;19.20;99.90;;;;;;5060484;28;20556;-77
2022/09/03 08:44:30;;;;;;;0.00;0.00;;;19.30;99.90;;;;;;5060360;28;20451;-76
2022/09/03 08:47:01;;;;;;;0.00;0.00;;;19.30;99.90;;;;;;5060115;28;20534;-77
2022/09/03 08:49:37;;;;;;;0.00;0.00;;;19.50;99.90;;;;;;5059070;28;20562;-77
2022/09/03 08:52:20;;;;;;;0.00;0.00;;;19.60;99.90;;;;;;5060286;28;20441;-77
2022/09/03 08:54:51;;;;;;;0.00;0.00;;;19.70;99.90;;;;;;5059174;28;20976;-77
2022/09/03 08:57:21;;;;;;;0.00;0.00;;;19.90;99.90;;;;;;5059807;28;21099;-77
2022/09/03 08:59:54;;;;;;;0.00;0.00;;;20.00;99.90;;;;;;5059524;28;20474;-78
2022/09/03 09:02:30;;;;;;;0.00;0.00;;;20.20;99.90;;;;;;5059519;28;20469;-76
2022/09/03 09:05:04;;;;;;;0.00;0.00;;;20.30;99.90;;;;;;5060045;28;20465;-76
2022/09/03 09:07:44;;;;;;;0.00;0.00;;;20.50;99.90;;;;;;5059738;28;21109;-77
2022/09/03 09:10:16;;;;;;;0.00;0.00;;;20.70;99.90;;;;;;5059408;28;21113;-78
2022/09/03 09:12:56;;;;;;;0.00;0.00;;;20.90;99.90;;;;;;5059690;28;20435;-77
2022/09/03 09:15:34;;;;;;;0.00;0.00;;;21.00;99.90;;;;;;5060276;28;20416;-78
2022/09/03 09:18:11;;;;;;;0.00;0.00;;;21.00;99.90;;;;;;5059864;28;20953;-76
2022/09/03 09:20:44;;;;;;;0.00;0.00;;;21.00;99.90;;;;;;5058923;28;20459;-78
2022/09/03 09:23:15;;;;;;;0.00;0.00;;;21.10;99.90;;;;;;5059729;28;20453;-77
2022/09/03 09:25:48;;;;;;;0.00;0.00;;;21.20;99.90;;;;;;5059433;28;21102;-77
2022/09/03 09:28:19;;;;;;;0.00;0.00;;;21.30;99.90;;;;;;5065659;28;20431;-77
2022/09/03 09:30:50;;;;;;;0.00;0.00;;;21.40;99.90;;;;;;5071361;28;20471;-78
2022/09/03 09:33:19;;;;;;;0.00;0.00;;;21.30;99.90;;;;;;5060373;28;20443;-77
2022/09/03 09:35:48;;;;;;;0.00;0.00;;;21.30;99.90;;;;;;5060081;28;20518;-77
2022/09/03 09:38:26;;;;;;;0.00;0.00;;;21.30;99.90;;;;;;5059569;28;20530;-79
2022/09/03 09:40:56;;;;;;;0.00;0.00;;;21.30;99.90;;;;;;5059450;28;20820;-78
2022/09/03 09:43:25;;;;;;;0.00;0.00;;;21.30;99.90;;;;;;5058276;28;20457;-78
2022/09/03 09:45:54;;;;;;;0.00;0.00;;;21.30;99.90;;;;;;5041582;28;21149;-76
2022/09/03 09:48:30;;;;;;;0.00;0.00;;;21.30;99.90;;;;;;5038179;28;20432;-76
2022/09/03 09:51:05;;;;;;;0.00;0.00;;;21.30;99.90;;;;;;5039129;28;21209;-78
2022/09/03 09:53:33;;;;;;;0.00;0.00;;;21.20;99.90;;;;;;5039368;28;20439;-78
2022/09/03 09:56:02;;;;;;;0.00;0.00;;;21.20;99.40;;;;;;5038320;28;20515;-77
2022/09/03 09:58:33;;;;;;;0.00;0.00;;;21.20;99.50;;;;;;5038291;28;21051;-74
2022/09/03 10:01:11;;;;;;;0.00;0.00;;;21.20;99.90;;;;;;5038442;28;20452;-72
2022/09/03 10:03:48;;;;;;;0.00;0.00;;;21.30;99.70;;;;;;5039278;28;21026;-72
2022/09/03 10:09:10;;;;;;;0.00;0.00;;;21.40;98.80;;;;;;5038738;28;20478;-73
2022/09/03 10:11:41;;;;;;;0.00;0.00;;;21.50;98.70;;;;;;5038791;28;20550;-72
2022/09/03 10:14:18;;;;;;;0.00;0.00;;;21.50;98.80;;;;;;5039169;28;20432;-73
2022/09/03 10:16:50;;;;;;;0.00;0.00;;;21.50;98.50;;;;;;5038619;28;20479;-72
2022/09/03 10:19:33;;;;;;;0.00;0.00;;;21.50;98.20;;;;;;5038274;28;20471;-72
2022/09/03 10:22:09;;;;;;;0.00;0.00;;;21.50;98.40;;;;;;5038965;28;20682;-73
2022/09/03 10:24:52;;;;;;;0.00;0.00;;;21.50;98.40;;;;;;5038663;28;20432;-72
2022/09/03 10:27:21;;;;;;;0.00;0.00;;;21.60;97.80;;;;;;5038268;28;21097;-72
2022/09/03 10:29:52;;;;;;;0.00;0.00;;;21.50;97.10;;;;;;5038205;28;20836;-72
2022/09/03 10:32:29;;;;;;;0.00;0.00;;;21.50;96.90;;;;;;5038273;28;20522;-72
2022/09/03 10:35:27;;;;;;;0.00;0.00;;;21.40;97.00;;;;;;5037983;28;20483;-73
2022/09/03 10:38:06;;;;;;;0.00;0.00;;;21.30;96.90;;;;;;5037543;28;20528;-73
2022/09/03 10:40:40;;;;;;;0.00;0.00;;;21.30;96.90;;;;;;5037534;28;20474;-76
2022/09/03 10:43:23;;;;;;;0.00;0.00;;;21.30;96.80;;;;;;5038497;28;21034;-78
2022/09/03 10:46:05;;;;;;;0.00;0.00;;;21.40;97.10;;;;;;5040455;28;20445;-76
2022/09/03 10:48:46;;;;;;;0.00;0.00;;;21.60;97.40;;;;;;5041100;28;20487;-78
2022/09/03 10:51:19;;;;;;;0.00;0.00;;;21.70;97.30;;;;;;5038200;28;20463;-77
2022/09/03 10:54:08;;;;;;;0.00;0.00;;;21.80;97.00;;;;;;5037585;28;20717;-78
2022/09/03 10:56:49;;;;;;;0.00;0.00;;;21.90;96.80;;;;;;5059797;28;20478;-76
2022/09/03 10:59:41;;;;;;;0.00;0.00;;;22.00;97.30;;;;;;5059210;28;20593;-77
2022/09/03 11:02:32;;;;;;;0.00;0.00;;;22.10;97.60;;;;;;5059158;28;20479;-77
2022/09/03 11:05:04;;;;;;;0.00;0.00;;;22.10;96.90;;;;;;5056426;28;20435;-78
2022/09/03 11:07:37;;;;;;;0.00;0.00;;;21.90;97.10;;;;;;5044098;28;21090;-78
2022/09/03 11:10:13;;;;;;;0.00;0.00;;;22.00;96.70;;;;;;5051934;28;20480;-78
2022/09/03 11:12:45;;;;;;;0.00;0.00;;;22.00;96.50;;;;;;5038757;28;20675;-77
2022/09/03 11:15:21;;;;;;;0.00;0.00;;;22.00;96.40;;;;;;5038640;28;20627;-77
2022/09/03 11:18:01;;;;;;;0.00;0.00;;;22.10;96.20;;;;;;5039141;28;20486;-77
2022/09/03 11:20:30;;;;;;;0.00;0.00;;;22.00;96.70;;;;;;5042061;28;20688;-77
2022/09/03 11:23:01;;;;;;;0.00;0.00;;;22.20;96.50;;;;;;5041480;28;20473;-77
2022/09/03 11:25:34;;;;;;;0.00;0.00;;;22.40;96.40;;;;;;5043905;28;20513;-77
2022/09/03 11:28:13;;;;;;;0.00;0.00;;;22.50;95.80;;;;;;5041566;28;20563;-78
2022/09/03 11:30:53;;;;;;;0.00;0.00;;;22.70;95.60;;;;;;5041381;28;20429;-78
2022/09/03 11:33:24;;;;;;;0.00;0.00;;;22.60;96.10;;;;;;5042252;28;20433;-77
2022/09/03 11:35:59;;;;;;;0.00;0.00;;;22.50;95.50;;;;;;5041463;28;20831;-78
2022/09/03 11:38:30;;;;;;;0.00;0.00;;;22.40;95.50;;;;;;5060081;28;20548;-78
2022/09/03 11:41:02;;;;;;;0.00;0.00;;;22.40;95.90;;;;;;5068241;28;20472;-77
2022/09/03 11:43:32;;;;;;;0.00;0.00;;;22.40;96.10;;;;;;5057226;28;20952;-77
2022/09/03 11:46:10;;;;;;;0.00;0.00;;;22.50;95.80;;;;;;5056237;28;20451;-76
2022/09/03 11:48:43;;;;;;;0.00;0.00;;;22.70;95.60;;;;;;5044176;28;20883;-74
2022/09/03 11:51:21;;;;;;;0.00;0.00;;;22.80;95.10;;;;;;5041477;28;20711;-73
2022/09/03 11:53:57;;;;;;;0.00;0.00;;;22.80;95.10;;;;;;5040764;28;20891;-72
2022/09/03 11:56:26;;;;;;;0.00;0.00;;;23.00;94.70;;;;;;5051582;28;20483;-74
2022/09/03 11:59:14;;;;;;;0.00;0.00;;;23.10;94.70;;;;;;5049507;28;20860;-75
2022/09/03 12:01:48;;;;;;;0.00;0.00;;;23.20;94.60;;;;;;5040847;28;20881;-73
2022/09/03 12:04:20;;;;;;;0.00;0.00;;;23.20;94.50;;;;;;5040692;28;20485;-72
2022/09/03 12:07:08;;;;;;;0.00;0.00;;;23.20;94.30;;;;;;5049116;28;20502;-72
2022/09/03 12:09:59;;;;;;;0.00;0.00;;;23.20;94.40;;;;;;5040430;28;20467;-74
2022/09/03 12:12:44;;;;;;;0.00;0.00;;;23.20;93.70;;;;;;5040606;28;20446;-73
2022/09/03 12:15:26;;;;;;;0.00;0.00;;;23.10;94.00;;;;;;5041255;28;20443;-74
2022/09/03 12:20:47;;;;;;;0.00;0.00;;;23.10;94.20;;;;;;5043758;28;20541;-74
2022/09/03 12:23:27;;;;;;;0.00;0.00;;;23.10;93.90;;;;;;5048590;28;20453;-72
2022/09/03 12:25:55;;;;;;;0.00;0.00;;;23.20;94.20;;;;;;5042898;28;20488;-74
2022/09/03 12:28:24;;;;;;;0.00;0.00;;;23.20;93.80;;;;;;5053275;28;20750;-73
2022/09/03 12:30:53;;;;;;;0.00;0.00;;;23.20;93.70;;;;;;5059871;28;20521;-73
2022/09/03 12:33:22;;;;;;;0.00;0.00;;;23.20;93.80;;;;;;5059612;28;20462;-74
2022/09/03 12:35:58;;;;;;;0.00;0.00;;;23.10;93.80;;;;;;5039908;28;20504;-73
2022/09/03 12:38:31;;;;;;;0.00;0.00;;;23.00;93.80;;;;;;5045660;28;20476;-73
2022/09/03 12:41:21;;;;;;;0.00;0.00;;;23.00;93.40;;;;;;5042818;28;20446;-72
2022/09/03 12:43:57;;;;;;;0.00;0.00;;;23.00;93.80;;;;;;5056212;28;20450;-73
2022/09/03 12:46:27;;;;;;;0.00;0.00;;;23.20;93.90;;;;;;5059526;28;20836;-72
2022/09/03 12:49:04;;;;;;;0.00;0.00;;;23.30;93.90;;;;;;5058942;28;21100;-71
2022/09/03 12:52:00;;;;;;;0.00;0.00;;;23.40;94.00;;;;;;5046802;28;20759;-73
2022/09/03 12:54:34;;;;;;;0.00;0.00;;;23.40;94.00;;;;;;5045122;28;20446;-72
2022/09/03 12:57:03;;;;;;;0.00;0.00;;;23.40;94.10;;;;;;5052741;28;20545;-73
2022/09/03 12:59:37;;;;;;;0.00;0.00;;;23.30;94.20;;;;;;5058024;28;20643;-73
2022/09/03 13:02:14;;;;;;;0.00;0.00;;;23.30;93.80;;;;;;5059094;28;20456;-73
2022/09/03 13:04:43;;;;;;;0.00;0.00;;;23.30;93.50;;;;;;5059206;28;20608;-73
2022/09/03 13:07:21;;;;;;;0.00;0.00;;;23.30;93.30;;;;;;5059058;28;21104;-73
2022/09/03 13:09:49;;;;;;;0.00;0.00;;;23.40;93.30;;;;;;5058709;28;20855;-72
2022/09/03 13:12:22;;;;;;;0.00;0.00;;;23.40;93.00;;;;;;5058995;28;20441;-71
2022/09/03 13:14:50;;;;;;;0.00;0.00;;;23.30;93.50;;;;;;5059080;28;20460;-72
2022/09/03 13:17:52;;;;;;;0.00;0.00;;;23.30;93.50;;;;;;5059067;28;20453;-73
2022/09/03 13:20:35;;;;;;;0.00;0.00;;;23.30;93.20;;;;;;5059031;28;20463;-72
2022/09/03 13:23:25;;;;;;;0.00;0.00;;;23.20;93.00;;;;;;5059190;28;20429;-73
2022/09/03 13:25:59;;;;;;;0.00;0.00;;;23.10;92.90;;;;;;5061126;28;20461;-72
2022/09/03 13:28:53;;;;;;;0.00;0.00;;;23.00;93.20;;;;;;5059339;28;21071;-73
2022/09/03 13:31:29;;;;;;;0.00;0.00;;;22.90;93.00;;;;;;5059178;28;20445;-72
2022/09/03 13:34:02;;;;;;;0.00;0.00;;;22.70;93.10;;;;;;5059480;28;20678;-72